Time;durP1;ratioP1;P1;durP2;ratioP2;P2;SDS_P1;SDS_P2;PMS_P1;PMS_P2;Temp;Humidity;BMP_temperature;BMP_pressure;BME280_temperature;BME280_humidity;BME280_pressure;Samples;Min_cycle;Max_cycle;Signal;HPM_P1;HPM_P2
2021/12/07 00:00:52;;;;;;;;;;;16.00;37.70;;;;;;8365776;28;20321;-49
2021/12/07 00:04:53;;;;;;;;;;;16.10;37.70;;;;;;8365778;28;19924;-49
2021/12/07 00:08:56;;;;;;;;;;;16.00;37.70;;;;;;8364813;28;19921;-52
2021/12/07 00:12:57;;;;;;;;;;;16.00;38.20;;;;;;8365307;28;19917;-52
2021/12/07 00:16:58;;;;;;;;;;;16.00;37.70;;;;;;8365336;28;19913;-48
2021/12/07 00:21:00;;;;;;;;;;;16.00;37.70;;;;;;8363961;28;21385;-49
2021/12/07 00:25:01;;;;;;;;;;;16.10;37.70;;;;;;8365222;28;20019;-48
2021/12/07 00:29:03;;;;;;;;;;;16.10;37.70;;;;;;8364898;28;20046;-49
2021/12/07 00:33:29;;;;;;;;;;;16.00;37.60;;;;;;8364265;28;19935;-49
2021/12/07 00:37:32;;;;;;;;;;;16.00;37.70;;;;;;8364636;28;20294;-49
2021/12/07 00:41:32;;;;;;;;;;;16.10;37.70;;;;;;8364409;28;20374;-49
2021/12/07 00:45:34;;;;;;;;;;;16.00;37.70;;;;;;8364102;28;19913;-48
2021/12/07 00:49:35;;;;;;;;;;;16.00;37.70;;;;;;8364533;28;19924;-49
2021/12/07 00:53:35;;;;;;;;;;;16.00;37.70;;;;;;8364223;28;19920;-48
2021/12/07 00:57:36;;;;;;;;;;;16.00;37.70;;;;;;8363782;28;19917;-49
2021/12/07 01:01:37;;;;;;;;;;;16.00;37.70;;;;;;8364240;28;19929;-48
2021/12/07 01:05:39;;;;;;;;;;;16.00;37.70;;;;;;8364136;28;19963;-50
2021/12/07 01:24:39;;;;;;;;;;;16.00;37.70;;;;;;8362338;28;19931;-48
2021/12/07 01:26:58;;;;;;;;;;;16.00;37.80;;;;;;8365109;28;19982;-49
2021/12/07 01:31:20;;;;;;;;;;;16.00;37.80;;;;;;8363726;28;20362;-49
2021/12/07 02:00:51;;;;;;;;;;;16.00;37.80;;;;;;8363045;28;19928;-49
2021/12/07 02:04:52;;;;;;;;;;;15.90;37.70;;;;;;8362672;28;20000;-48
2021/12/07 02:08:52;;;;;;;;;;;16.00;37.80;;;;;;8347873;28;19928;-49
2021/12/07 02:13:01;;;;;;;;;;;16.00;37.80;;;;;;8362528;28;19963;-49
2021/12/07 02:17:03;;;;;;;;;;;16.00;37.80;;;;;;8362802;28;19924;-48
2021/12/07 02:21:16;;;;;;;;;;;15.90;37.70;;;;;;8367102;28;20341;-49
2021/12/07 02:25:17;;;;;;;;;;;16.00;37.80;;;;;;8368992;28;19924;-48
2021/12/07 02:29:18;;;;;;;;;;;15.90;37.70;;;;;;8368711;28;19928;-49
2021/12/07 02:33:18;;;;;;;;;;;16.00;37.70;;;;;;8368208;28;20378;-51
2021/12/07 02:37:22;;;;;;;;;;;15.90;37.70;;;;;;8368578;28;19913;-48
2021/12/07 02:41:23;;;;;;;;;;;15.90;37.70;;;;;;8368345;28;19925;-49
2021/12/07 02:45:23;;;;;;;;;;;15.90;37.70;;;;;;8367682;28;19952;-49
2021/12/07 02:49:24;;;;;;;;;;;15.90;37.80;;;;;;8367879;28;19929;-49
2021/12/07 02:53:26;;;;;;;;;;;15.90;37.80;;;;;;8367961;28;19919;-48
2021/12/07 02:57:27;;;;;;;;;;;15.90;37.80;;;;;;8367372;28;19974;-48
2021/12/07 03:01:31;;;;;;;;;;;15.90;37.80;;;;;;8367740;28;19925;-49
2021/12/07 03:26:36;;;;;;;;;;;15.90;37.90;;;;;;8367122;28;20297;-49
2021/12/07 03:30:36;;;;;;;;;;;15.90;37.80;;;;;;8365208;28;20007;-49
2021/12/07 03:34:37;;;;;;;;;;;15.90;37.80;;;;;;8366712;28;19921;-49
2021/12/07 03:38:38;;;;;;;;;;;15.90;37.80;;;;;;8366375;28;19913;-48
2021/12/07 03:42:38;;;;;;;;;;;15.90;37.80;;;;;;8365945;28;20343;-50
2021/12/07 03:46:39;;;;;;;;;;;15.90;37.80;;;;;;8366402;28;19917;-48
2021/12/07 03:50:39;;;;;;;;;;;15.90;37.80;;;;;;8366097;28;19925;-48
2021/12/07 03:54:40;;;;;;;;;;;15.90;37.80;;;;;;8365626;28;19921;-48
2021/12/07 03:58:41;;;;;;;;;;;15.90;37.80;;;;;;8365818;28;19982;-48
2021/12/07 04:02:42;;;;;;;;;;;15.80;37.80;;;;;;8365950;28;19913;-48
2021/12/07 04:06:42;;;;;;;;;;;15.80;37.80;;;;;;8365673;28;19935;-48
2021/12/07 04:10:43;;;;;;;;;;;15.80;37.80;;;;;;8365659;28;19928;-51
2021/12/07 04:14:44;;;;;;;;;;;15.80;37.80;;;;;;8365249;28;19917;-48
2021/12/07 04:18:44;;;;;;;;;;;15.80;37.80;;;;;;8364656;28;19946;-48
2021/12/07 04:22:45;;;;;;;;;;;15.80;37.80;;;;;;8365364;28;20278;-48
2021/12/07 04:26:45;;;;;;;;;;;15.80;37.90;;;;;;8364942;28;19912;-48
2021/12/07 04:30:46;;;;;;;;;;;15.80;37.90;;;;;;8364263;28;19920;-48
2021/12/07 04:34:46;;;;;;;;;;;15.80;37.90;;;;;;8365001;28;19928;-48
2021/12/07 04:38:46;;;;;;;;;;;15.80;37.90;;;;;;8364399;28;20058;-48
2021/12/07 04:42:47;;;;;;;;;;;15.80;37.90;;;;;;8364285;28;20347;-48
2021/12/07 04:59:48;;;;;;;;;;;15.80;37.90;;;;;;8330492;28;19935;-47
2021/12/07 05:03:50;;;;;;;;;;;15.80;37.90;;;;;;8344540;28;19913;-47
2021/12/07 05:07:53;;;;;;;;;;;15.80;37.90;;;;;;8364197;28;19932;-48
2021/12/07 05:16:08;;;;;;;;;;;15.80;38.00;;;;;;8363801;28;20285;-48
2021/12/07 05:24:28;;;;;;;;;;;15.80;37.90;;;;;;8363022;28;19927;-48
2021/12/07 05:41:26;;;;;;;;;;;15.80;38.00;;;;;;8364568;28;19970;-48
2021/12/07 05:45:32;;;;;;;;;;;15.80;38.00;;;;;;8362666;28;20271;-48
2021/12/07 05:49:34;;;;;;;;;;;15.80;38.00;;;;;;8363165;28;20379;-48
2021/12/07 05:53:35;;;;;;;;;;;15.80;38.00;;;;;;8363871;28;19925;-48
2021/12/07 05:57:36;;;;;;;;;;;15.80;38.00;;;;;;8369551;28;19959;-47
2021/12/07 06:01:36;;;;;;;;;;;15.80;38.10;;;;;;8369821;28;19920;-48
2021/12/07 06:05:37;;;;;;;;;;;15.70;38.00;;;;;;8369405;28;20099;-49
2021/12/07 06:09:38;;;;;;;;;;;15.70;38.00;;;;;;8368760;28;20420;-49
2021/12/07 06:13:39;;;;;;;;;;;15.70;38.00;;;;;;8369098;28;19912;-48
2021/12/07 06:17:39;;;;;;;;;;;15.70;38.00;;;;;;8369371;28;19998;-49
2021/12/07 06:21:40;;;;;;;;;;;15.70;38.00;;;;;;8368460;28;19964;-48
2021/12/07 06:25:40;;;;;;;;;;;15.70;38.00;;;;;;8368842;28;19917;-48
2021/12/07 06:29:41;;;;;;;;;;;15.70;38.00;;;;;;8368563;28;19964;-49
2021/12/07 06:33:41;;;;;;;;;;;15.70;38.00;;;;;;8368058;28;19917;-49
2021/12/07 06:37:42;;;;;;;;;;;15.70;38.00;;;;;;8368701;28;19917;-49
2021/12/07 06:41:42;;;;;;;;;;;15.70;38.00;;;;;;8368388;28;19955;-48
2021/12/07 06:45:43;;;;;;;;;;;15.70;38.00;;;;;;8367677;28;19952;-48
2021/12/07 06:49:43;;;;;;;;;;;15.70;38.00;;;;;;8367991;28;19920;-51
2021/12/07 06:53:44;;;;;;;;;;;15.70;38.00;;;;;;8367931;28;19917;-49
2021/12/07 06:57:45;;;;;;;;;;;15.70;38.00;;;;;;8367670;28;19916;-48
2021/12/07 07:01:45;;;;;;;;;;;15.70;38.00;;;;;;8367281;28;19920;-48
2021/12/07 07:05:46;;;;;;;;;;;15.70;38.00;;;;;;8367449;28;19913;-51
2021/12/07 07:09:46;;;;;;;;;;;15.70;38.00;;;;;;8366878;28;19925;-50
2021/12/07 07:13:47;;;;;;;;;;;15.70;38.00;;;;;;8367110;28;19921;-47
2021/12/07 07:17:48;;;;;;;;;;;15.70;38.00;;;;;;8367050;28;19973;-49
2021/12/07 07:21:48;;;;;;;;;;;15.70;38.00;;;;;;8367132;28;19917;-49
2021/12/07 07:25:49;;;;;;;;;;;15.70;38.00;;;;;;8366731;28;20274;-48
2021/12/07 07:29:49;;;;;;;;;;;15.70;38.00;;;;;;8365741;28;19932;-48
2021/12/07 07:33:51;;;;;;;;;;;15.70;38.00;;;;;;8366594;28;19913;-48
2021/12/07 07:37:52;;;;;;;;;;;15.70;38.00;;;;;;8366672;28;19940;-48
2021/12/07 07:41:53;;;;;;;;;;;15.70;38.00;;;;;;8365930;28;19924;-47
2021/12/07 07:45:54;;;;;;;;;;;15.70;38.00;;;;;;8366532;28;19917;-47
2021/12/07 07:49:54;;;;;;;;;;;15.70;38.00;;;;;;8366149;28;19921;-47
2021/12/07 07:53:56;;;;;;;;;;;15.70;38.00;;;;;;8365925;28;20393;-48
2021/12/07 07:57:57;;;;;;;;;;;15.70;38.00;;;;;;8365932;28;19916;-48
2021/12/07 08:01:57;;;;;;;;;;;15.70;38.00;;;;;;8366021;28;19970;-47
2021/12/07 08:05:58;;;;;;;;;;;15.70;38.00;;;;;;8364204;28;19966;-48
2021/12/07 08:09:58;;;;;;;;;;;15.70;38.00;;;;;;8365341;28;19927;-47
2021/12/07 08:13:59;;;;;;;;;;;15.70;38.00;;;;;;8365524;28;19923;-48
2021/12/07 08:17:59;;;;;;;;;;;15.70;38.00;;;;;;8364576;28;19921;-51
2021/12/07 08:22:00;;;;;;;;;;;15.70;38.00;;;;;;8365250;28;19917;-50
2021/12/07 08:26:00;;;;;;;;;;;15.70;38.00;;;;;;8365203;28;19913;-48
2021/12/07 08:30:02;;;;;;;;;;;15.70;38.00;;;;;;8364372;28;19929;-48
2021/12/07 08:34:03;;;;;;;;;;;15.70;38.00;;;;;;8363976;28;19966;-48
2021/12/07 08:38:04;;;;;;;;;;;15.70;38.00;;;;;;8364750;28;19917;-48
2021/12/07 08:42:04;;;;;;;;;;;15.70;38.00;;;;;;8364311;28;19920;-48
2021/12/07 08:46:05;;;;;;;;;;;15.70;38.00;;;;;;8364400;28;20187;-48
2021/12/07 08:50:09;;;;;;;;;;;15.70;38.00;;;;;;8364449;28;19920;-48
2021/12/07 08:54:31;;;;;;;;;;;15.70;38.00;;;;;;8363805;28;20354;-48
2021/12/07 09:02:51;;;;;;;;;;;15.80;38.10;;;;;;8363718;28;20083;-48
2021/12/07 09:06:51;;;;;;;;;;;15.70;38.00;;;;;;8363946;28;20377;-48
2021/12/07 09:10:52;;;;;;;;;;;15.80;38.00;;;;;;8363467;28;20389;-48
2021/12/07 09:14:53;;;;;;;;;;;15.80;38.00;;;;;;8363307;28;20298;-49
2021/12/07 09:18:53;;;;;;;;;;;15.80;38.00;;;;;;8364087;28;19920;-48
2021/12/07 09:22:54;;;;;;;;;;;15.80;38.00;;;;;;8363434;28;20384;-47
2021/12/07 09:26:54;;;;;;;;;;;15.80;38.00;;;;;;8362849;28;19939;-48
2021/12/07 09:30:55;;;;;;;;;;;15.80;38.00;;;;;;8362451;28;19917;-49
2021/12/07 09:34:55;;;;;;;;;;;15.80;38.00;;;;;;8363137;28;19913;-48
2021/12/07 09:38:56;;;;;;;;;;;15.70;37.90;;;;;;8362934;28;19913;-49
2021/12/07 09:42:57;;;;;;;;;;;15.80;38.00;;;;;;8362753;28;19917;-50
2021/12/07 09:46:57;;;;;;;;;;;15.80;38.00;;;;;;8363003;28;19932;-48
2021/12/07 09:50:58;;;;;;;;;;;15.80;38.00;;;;;;8362743;28;19924;-49
2021/12/07 09:54:58;;;;;;;;;;;15.80;38.00;;;;;;8362916;28;19966;-48
2021/12/07 09:58:59;;;;;;;;;;;15.80;38.00;;;;;;8363155;28;19960;-49
2021/12/07 10:03:00;;;;;;;;;;;15.80;38.00;;;;;;8362308;28;19917;-50
2021/12/07 10:07:00;;;;;;;;;;;15.80;38.00;;;;;;8362999;28;19917;-49
2021/12/07 10:11:02;;;;;;;;;;;15.80;38.00;;;;;;8362616;28;20449;-49
2021/12/07 10:15:05;;;;;;;;;;;15.80;38.00;;;;;;8362229;28;19959;-49
2021/12/07 10:19:05;;;;;;;;;;;15.80;38.00;;;;;;8363015;28;19920;-49
2021/12/07 10:23:19;;;;;;;;;;;15.80;38.00;;;;;;8362437;28;19970;-49
2021/12/07 10:27:31;;;;;;;;;;;15.80;38.00;;;;;;8361933;28;19921;-48
2021/12/07 10:31:43;;;;;;;;;;;15.80;38.00;;;;;;8362486;28;19917;-49
2021/12/07 10:35:43;;;;;;;;;;;15.80;38.00;;;;;;8362451;28;19940;-49
2021/12/07 10:39:46;;;;;;;;;;;15.80;38.00;;;;;;8365136;28;19956;-49
2021/12/07 10:43:46;;;;;;;;;;;15.80;38.00;;;;;;8370643;28;20342;-49
2021/12/07 10:47:47;;;;;;;;;;;15.80;38.00;;;;;;8370336;28;19929;-48
2021/12/07 10:52:02;;;;;;;;;;;15.80;38.00;;;;;;8369952;28;20267;-49
2021/12/07 10:56:03;;;;;;;;;;;15.80;38.00;;;;;;8370334;28;20392;-49
2021/12/07 11:00:03;;;;;;;;;;;15.80;38.00;;;;;;8368068;28;19921;-50
2021/12/07 11:04:17;;;;;;;;;;;15.80;38.00;;;;;;8367534;28;20008;-50
2021/12/07 11:08:18;;;;;;;;;;;15.90;38.00;;;;;;8346624;28;19995;-52
2021/12/07 11:12:20;;;;;;;;;;;15.90;38.00;;;;;;8350572;28;19939;-50
2021/12/07 11:16:20;;;;;;;;;;;15.90;38.10;;;;;;8367586;28;19940;-50
2021/12/07 11:20:21;;;;;;;;;;;15.90;38.00;;;;;;8367440;28;20024;-50
2021/12/07 11:24:21;;;;;;;;;;;15.90;38.00;;;;;;8366688;28;19927;-49
2021/12/07 11:32:49;;;;;;;;;;;15.90;38.00;;;;;;8369306;28;19927;-50
2021/12/07 11:36:49;;;;;;;;;;;15.90;38.00;;;;;;8367050;28;19948;-49
2021/12/07 11:40:50;;;;;;;;;;;15.90;38.00;;;;;;8366768;28;19917;-50
2021/12/07 11:44:52;;;;;;;;;;;15.90;38.60;;;;;;8366144;28;19913;-50
2021/12/07 11:49:10;;;;;;;;;;;15.90;37.90;;;;;;8366201;28;20357;-51
2021/12/07 11:53:12;;;;;;;;;;;15.90;37.90;;;;;;8365511;28;19917;-54
2021/12/07 11:57:15;;;;;;;;;;;15.90;38.00;;;;;;8365813;28;19920;-49
2021/12/07 12:01:15;;;;;;;;;;;15.90;37.90;;;;;;8366087;28;19921;-50
2021/12/07 12:05:16;;;;;;;;;;;15.90;37.90;;;;;;8366023;28;19913;-50
2021/12/07 12:09:17;;;;;;;;;;;15.90;38.00;;;;;;8365236;28;19925;-53
2021/12/07 12:13:24;;;;;;;;;;;16.00;38.00;;;;;;8365561;28;20455;-50
2021/12/07 12:17:36;;;;;;;;;;;15.90;37.90;;;;;;8365319;28;20012;-50
2021/12/07 12:21:54;;;;;;;;;;;16.00;38.00;;;;;;8364895;28;19971;-49
2021/12/07 12:25:56;;;;;;;;;;;16.00;38.00;;;;;;8365167;28;19913;-52
2021/12/07 12:29:58;;;;;;;;;;;16.00;38.00;;;;;;8364687;28;20000;-50
2021/12/07 12:33:58;;;;;;;;;;;16.00;37.90;;;;;;8364698;28;19920;-49
2021/12/07 12:37:59;;;;;;;;;;;16.00;37.90;;;;;;8364613;28;19956;-50
2021/12/07 12:41:59;;;;;;;;;;;16.00;37.90;;;;;;8364342;28;19917;-50
2021/12/07 12:46:00;;;;;;;;;;;16.00;37.90;;;;;;8364831;28;19913;-50
2021/12/07 12:50:12;;;;;;;;;;;16.00;37.90;;;;;;8364535;28;19928;-49
2021/12/07 12:54:12;;;;;;;;;;;16.00;37.90;;;;;;8363670;28;20455;-50
2021/12/07 12:58:15;;;;;;;;;;;16.00;37.90;;;;;;8364142;28;19921;-50
2021/12/07 13:02:18;;;;;;;;;;;16.00;37.80;;;;;;8363848;28;19924;-51
2021/12/07 13:06:24;;;;;;;;;;;16.00;37.90;;;;;;8363496;28;19952;-50
2021/12/07 13:10:25;;;;;;;;;;;16.00;37.90;;;;;;8364203;28;20450;-50
2021/12/07 13:14:25;;;;;;;;;;;16.00;37.80;;;;;;8363691;28;19917;-49
2021/12/07 13:18:32;;;;;;;;;;;16.00;37.90;;;;;;8363227;28;19917;-49
2021/12/07 13:22:33;;;;;;;;;;;16.00;37.80;;;;;;8369794;28;20383;-49
2021/12/07 13:26:36;;;;;;;;;;;16.00;37.80;;;;;;8363484;28;19925;-49
2021/12/07 13:30:42;;;;;;;;;;;16.00;37.80;;;;;;8363203;28;19921;-51
2021/12/07 13:34:43;;;;;;;;;;;16.00;37.80;;;;;;8363381;28;19920;-49
2021/12/07 13:38:44;;;;;;;;;;;16.00;37.80;;;;;;8363108;28;19971;-52
2021/12/07 13:42:47;;;;;;;;;;;16.10;37.90;;;;;;8362696;28;19963;-50
2021/12/07 13:46:51;;;;;;;;;;;16.10;37.80;;;;;;8363323;28;19924;-50
2021/12/07 13:50:51;;;;;;;;;;;16.10;37.90;;;;;;8362825;28;19920;-52
2021/12/07 13:54:57;;;;;;;;;;;16.10;37.90;;;;;;8362875;28;19924;-50
2021/12/07 13:58:57;;;;;;;;;;;16.00;37.80;;;;;;8362720;28;20281;-51
2021/12/07 14:03:00;;;;;;;;;;;16.10;37.90;;;;;;8362842;28;19921;-49
2021/12/07 14:07:00;;;;;;;;;;;16.00;37.90;;;;;;8341577;28;19924;-49
2021/12/07 14:11:01;;;;;;;;;;;16.00;37.80;;;;;;8362911;28;19925;-50
2021/12/07 14:15:06;;;;;;;;;;;16.10;37.90;;;;;;8363874;28;19920;-52
2021/12/07 14:19:07;;;;;;;;;;;16.10;37.90;;;;;;8369054;28;19951;-52
2021/12/07 14:23:13;;;;;;;;;;;16.10;37.90;;;;;;8369277;28;20420;-51
2021/12/07 14:27:13;;;;;;;;;;;16.10;37.90;;;;;;8368593;28;20373;-49
2021/12/07 14:31:25;;;;;;;;;;;16.10;37.90;;;;;;8368751;28;20003;-51
2021/12/07 14:35:25;;;;;;;;;;;16.10;37.90;;;;;;8368530;28;19970;-48
2021/12/07 14:39:30;;;;;;;;;;;16.00;37.90;;;;;;8368117;28;19916;-50
2021/12/07 14:43:31;;;;;;;;;;;16.00;37.90;;;;;;8368212;28;19923;-49
2021/12/07 14:47:31;;;;;;;;;;;16.00;37.90;;;;;;8368221;28;20377;-51
2021/12/07 14:51:32;;;;;;;;;;;16.10;38.00;;;;;;8367865;28;19917;-49
2021/12/07 14:55:36;;;;;;;;;;;16.00;37.90;;;;;;8367773;28;19917;-50
2021/12/07 14:59:38;;;;;;;;;;;16.00;37.90;;;;;;8368140;28;19920;-49
2021/12/07 15:03:43;;;;;;;;;;;16.10;38.00;;;;;;8367268;28;19920;-48
2021/12/07 15:07:44;;;;;;;;;;;16.00;37.90;;;;;;8367499;28;19933;-51
2021/12/07 15:11:46;;;;;;;;;;;16.00;38.00;;;;;;8368159;28;20312;-52
2021/12/07 15:15:46;;;;;;;;;;;16.00;38.00;;;;;;8366819;28;19924;-49
2021/12/07 15:19:47;;;;;;;;;;;16.00;38.00;;;;;;8367389;28;19917;-49
2021/12/07 15:23:52;;;;;;;;;;;16.00;38.00;;;;;;8366658;28;19928;-51
2021/12/07 15:27:53;;;;;;;;;;;16.00;38.00;;;;;;8365528;28;19940;-50
2021/12/07 15:31:55;;;;;;;;;;;16.00;38.00;;;;;;8366937;28;19924;-49
2021/12/07 15:35:55;;;;;;;;;;;16.00;38.10;;;;;;8366128;28;19986;-49
2021/12/07 15:39:57;;;;;;;;;;;16.00;38.10;;;;;;8366604;28;19916;-49
2021/12/07 15:43:58;;;;;;;;;;;16.00;38.00;;;;;;8366369;28;19924;-49
2021/12/07 15:47:59;;;;;;;;;;;16.00;38.00;;;;;;8365725;28;20044;-49
2021/12/07 15:52:01;;;;;;;;;;;16.00;38.10;;;;;;8366269;28;19920;-49
2021/12/07 15:56:02;;;;;;;;;;;16.00;38.00;;;;;;8365979;28;19925;-51
2021/12/07 16:00:03;;;;;;;;;;;15.90;38.00;;;;;;8365772;28;20329;-50
2021/12/07 16:04:04;;;;;;;;;;;16.00;38.10;;;;;;8365998;28;19921;-49
2021/12/07 16:08:09;;;;;;;;;;;16.00;38.10;;;;;;8365550;28;20435;-49
2021/12/07 16:12:10;;;;;;;;;;;16.00;38.00;;;;;;8366146;28;19912;-49
2021/12/07 16:16:16;;;;;;;;;;;15.90;38.00;;;;;;8365821;28;19924;-47
2021/12/07 16:20:16;;;;;;;;;;;15.90;38.00;;;;;;8365430;28;19970;-49
2021/12/07 16:24:18;;;;;;;;;;;16.00;38.00;;;;;;8364785;28;20448;-48
2021/12/07 16:28:18;;;;;;;;;;;16.00;38.00;;;;;;8364714;28;19932;-51
2021/12/07 16:32:19;;;;;;;;;;;16.00;38.00;;;;;;8365092;28;19913;-52
2021/12/07 16:36:21;;;;;;;;;;;16.00;37.90;;;;;;8364263;28;19917;-50
2021/12/07 16:40:21;;;;;;;;;;;16.00;37.90;;;;;;8364599;28;19967;-50
2021/12/07 16:44:22;;;;;;;;;;;16.00;37.90;;;;;;8364593;28;19917;-49
2021/12/07 16:48:22;;;;;;;;;;;16.00;37.90;;;;;;8363919;28;20404;-48
2021/12/07 16:52:23;;;;;;;;;;;16.00;37.90;;;;;;8364762;28;19913;-49
2021/12/07 16:56:23;;;;;;;;;;;16.00;37.90;;;;;;8364380;28;19964;-48
2021/12/07 17:00:25;;;;;;;;;;;16.00;37.90;;;;;;8363578;28;20270;-48
2021/12/07 17:04:26;;;;;;;;;;;16.00;38.00;;;;;;8364005;28;19917;-49
2021/12/07 17:08:26;;;;;;;;;;;16.00;38.00;;;;;;8359483;28;19925;-50
2021/12/07 17:12:27;;;;;;;;;;;16.00;38.00;;;;;;8330610;28;19970;-48
2021/12/07 17:16:28;;;;;;;;;;;15.90;37.90;;;;;;8361238;28;19921;-48
2021/12/07 17:20:29;;;;;;;;;;;15.90;37.90;;;;;;8363788;28;19917;-50
2021/12/07 17:24:29;;;;;;;;;;;15.90;38.00;;;;;;8362978;28;20362;-49
2021/12/07 17:28:31;;;;;;;;;;;15.90;38.00;;;;;;8363519;28;20381;-48
2021/12/07 17:32:31;;;;;;;;;;;15.90;38.00;;;;;;8363764;28;19916;-51
2021/12/07 17:36:32;;;;;;;;;;;15.90;38.00;;;;;;8362806;28;19924;-50
2021/12/07 17:40:33;;;;;;;;;;;15.90;38.00;;;;;;8363281;28;19917;-49
2021/12/07 17:44:33;;;;;;;;;;;15.90;38.00;;;;;;8363190;28;19921;-49
2021/12/07 17:48:34;;;;;;;;;;;15.90;38.00;;;;;;8362579;28;19934;-49
2021/12/07 17:52:34;;;;;;;;;;;15.90;38.00;;;;;;8369359;28;19916;-47
2021/12/07 17:56:35;;;;;;;;;;;15.90;38.00;;;;;;8370142;28;19924;-51
2021/12/07 18:00:37;;;;;;;;;;;15.90;38.00;;;;;;8369611;28;19995;-51
2021/12/07 18:04:37;;;;;;;;;;;15.90;38.00;;;;;;8369488;28;19919;-49
2021/12/07 18:08:38;;;;;;;;;;;15.90;38.00;;;;;;8369469;28;20282;-48
2021/12/07 18:12:39;;;;;;;;;;;15.90;38.00;;;;;;8369216;28;19924;-50
2021/12/07 18:16:40;;;;;;;;;;;15.90;38.00;;;;;;8369085;28;19924;-50
2021/12/07 18:20:42;;;;;;;;;;;15.90;38.00;;;;;;8368813;28;20258;-49
2021/12/07 18:24:42;;;;;;;;;;;15.90;38.00;;;;;;8368217;28;20019;-51
2021/12/07 18:28:43;;;;;;;;;;;15.90;38.00;;;;;;8368464;28;19943;-49
2021/12/07 18:32:44;;;;;;;;;;;15.90;38.00;;;;;;8368938;28;20000;-48
2021/12/07 18:36:44;;;;;;;;;;;15.90;38.00;;;;;;8368206;28;20366;-48
2021/12/07 18:40:45;;;;;;;;;;;15.90;38.00;;;;;;8368508;28;19917;-49
2021/12/07 18:44:46;;;;;;;;;;;15.90;38.00;;;;;;8368315;28;19920;-48
2021/12/07 18:48:46;;;;;;;;;;;15.90;38.00;;;;;;8367757;28;19954;-48
2021/12/07 18:52:47;;;;;;;;;;;15.90;38.00;;;;;;8368538;28;19919;-48
2021/12/07 18:56:47;;;;;;;;;;;15.90;38.00;;;;;;8367729;28;19940;-48
2021/12/07 19:00:50;;;;;;;;;;;15.90;38.00;;;;;;8367960;28;19955;-47
2021/12/07 19:04:52;;;;;;;;;;;15.80;37.90;;;;;;8367950;28;20389;-48
2021/12/07 19:08:53;;;;;;;;;;;15.90;38.00;;;;;;8366859;28;19932;-48
2021/12/07 19:12:56;;;;;;;;;;;15.90;38.00;;;;;;8367779;28;19920;-48
2021/12/07 19:16:56;;;;;;;;;;;15.80;37.90;;;;;;8367604;28;19916;-48
2021/12/07 19:20:57;;;;;;;;;;;15.80;37.90;;;;;;8366661;28;19960;-48
2021/12/07 19:24:58;;;;;;;;;;;15.90;38.00;;;;;;8367465;28;19916;-48
2021/12/07 19:28:58;;;;;;;;;;;15.90;37.90;;;;;;8367121;28;20699;-50
2021/12/07 19:32:59;;;;;;;;;;;15.80;37.90;;;;;;8366735;28;19920;-48
2021/12/07 19:37:03;;;;;;;;;;;15.90;37.90;;;;;;8366807;28;19971;-49
2021/12/07 19:41:04;;;;;;;;;;;15.90;38.00;;;;;;8367053;28;20388;-48
2021/12/07 19:45:09;;;;;;;;;;;15.90;37.90;;;;;;8366122;28;19924;-49
2021/12/07 19:49:12;;;;;;;;;;;15.90;37.90;;;;;;8365138;28;19928;-49
2021/12/07 19:53:16;;;;;;;;;;;15.90;37.90;;;;;;8366408;28;19974;-48
2021/12/07 19:57:16;;;;;;;;;;;15.90;37.90;;;;;;8365755;28;20362;-50
2021/12/07 20:01:18;;;;;;;;;;;15.90;37.80;;;;;;8366250;28;19928;-51
2021/12/07 20:05:21;;;;;;;;;;;15.90;37.80;;;;;;8354805;28;19970;-48
2021/12/07 20:09:21;;;;;;;;;;;15.90;37.80;;;;;;8335890;28;20018;-49
2021/12/07 20:13:23;;;;;;;;;;;15.90;37.80;;;;;;8365092;28;20266;-49
2021/12/07 20:17:24;;;;;;;;;;;15.90;37.80;;;;;;8365424;28;19921;-49
2021/12/07 20:21:24;;;;;;;;;;;15.90;37.80;;;;;;8364855;28;19916;-49
2021/12/07 20:25:25;;;;;;;;;;;15.90;37.80;;;;;;8365300;28;19913;-49
2021/12/07 20:29:26;;;;;;;;;;;15.90;37.80;;;;;;8365001;28;19951;-48
2021/12/07 20:33:26;;;;;;;;;;;15.90;37.80;;;;;;8364780;28;20417;-48
2021/12/07 20:37:29;;;;;;;;;;;15.90;37.80;;;;;;8364905;28;19962;-51
2021/12/07 20:41:30;;;;;;;;;;;15.80;37.70;;;;;;8364520;28;19925;-49
2021/12/07 20:45:32;;;;;;;;;;;15.80;37.70;;;;;;8364409;28;19916;-48
2021/12/07 20:49:35;;;;;;;;;;;15.80;37.80;;;;;;8364530;28;20287;-48
2021/12/07 20:53:36;;;;;;;;;;;15.80;37.80;;;;;;8364716;28;20290;-49
2021/12/07 20:57:37;;;;;;;;;;;15.80;37.90;;;;;;8363958;28;20019;-48
2021/12/07 21:01:38;;;;;;;;;;;15.80;37.90;;;;;;8364447;28;20302;-49
2021/12/07 21:05:39;;;;;;;;;;;15.80;37.80;;;;;;8364107;28;20012;-48
2021/12/07 21:09:40;;;;;;;;;;;15.80;38.30;;;;;;8363385;28;19939;-49
2021/12/07 21:13:41;;;;;;;;;;;15.80;37.80;;;;;;8363962;28;20258;-49
2021/12/07 21:17:42;;;;;;;;;;;15.80;37.80;;;;;;8363820;28;20409;-48
2021/12/07 21:21:43;;;;;;;;;;;15.80;38.20;;;;;;8363208;28;19955;-48
2021/12/07 21:25:43;;;;;;;;;;;15.80;37.80;;;;;;8363571;28;19920;-48
2021/12/07 21:29:44;;;;;;;;;;;15.80;37.80;;;;;;8363428;28;19928;-48
2021/12/07 21:33:45;;;;;;;;;;;15.80;37.80;;;;;;8363115;28;20432;-48
2021/12/07 21:37:45;;;;;;;;;;;15.80;37.80;;;;;;8363607;28;19945;-48
2021/12/07 21:41:46;;;;;;;;;;;15.80;37.80;;;;;;8363262;28;19992;-48
2021/12/07 21:45:46;;;;;;;;;;;15.80;37.80;;;;;;8362726;28;19928;-50
2021/12/07 21:49:48;;;;;;;;;;;15.80;37.80;;;;;;8362964;28;19928;-49
2021/12/07 21:53:49;;;;;;;;;;;15.70;37.80;;;;;;8362872;28;19921;-49
2021/12/07 21:57:50;;;;;;;;;;;15.80;37.80;;;;;;8363055;28;19916;-47
2021/12/07 22:01:51;;;;;;;;;;;15.80;37.80;;;;;;8363263;28;19921;-50
2021/12/07 22:05:51;;;;;;;;;;;15.80;37.70;;;;;;8362512;28;20412;-49
2021/12/07 22:09:53;;;;;;;;;;;15.80;37.70;;;;;;8363086;28;19928;-49
2021/12/07 22:13:54;;;;;;;;;;;15.80;37.70;;;;;;8362921;28;19917;-50
2021/12/07 22:17:54;;;;;;;;;;;15.80;37.70;;;;;;8362443;28;19923;-50
2021/12/07 22:21:54;;;;;;;;;;;15.80;37.70;;;;;;8362690;28;19924;-51
2021/12/07 22:25:55;;;;;;;;;;;15.80;37.60;;;;;;8362512;28;20289;-48
2021/12/07 22:29:57;;;;;;;;;;;15.80;37.60;;;;;;8362031;28;20403;-49
2021/12/07 22:33:58;;;;;;;;;;;15.80;37.60;;;;;;8362606;28;19943;-48
2021/12/07 22:37:58;;;;;;;;;;;15.80;37.60;;;;;;8366789;28;20301;-48
2021/12/07 22:41:59;;;;;;;;;;;15.80;37.70;;;;;;8368135;28;20290;-49
2021/12/07 22:46:00;;;;;;;;;;;15.80;37.70;;;;;;8368324;28;19920;-49
2021/12/07 22:50:02;;;;;;;;;;;15.80;37.70;;;;;;8368372;28;19960;-49
2021/12/07 22:54:03;;;;;;;;;;;15.80;37.70;;;;;;8368055;28;19916;-49
2021/12/07 22:58:04;;;;;;;;;;;15.80;37.70;;;;;;8368321;28;20294;-48
2021/12/07 23:02:04;;;;;;;;;;;15.80;37.70;;;;;;8381141;28;20365;-48
2021/12/07 23:06:05;;;;;;;;;;;15.80;37.80;;;;;;8373995;28;19917;-50
2021/12/07 23:10:06;;;;;;;;;;;15.80;37.70;;;;;;8368083;28;19921;-49
2021/12/07 23:14:10;;;;;;;;;;;15.80;37.80;;;;;;8367613;28;20016;-49
2021/12/07 23:18:17;;;;;;;;;;;15.80;37.80;;;;;;8366912;28;19917;-48
2021/12/07 23:22:17;;;;;;;;;;;15.80;38.30;;;;;;8369610;28;20431;-48
2021/12/07 23:26:18;;;;;;;;;;;15.70;37.70;;;;;;8367209;28;19917;-47
2021/12/07 23:30:18;;;;;;;;;;;15.70;37.70;;;;;;8366540;28;19925;-49
2021/12/07 23:34:19;;;;;;;;;;;15.70;37.80;;;;;;8367091;28;19917;-48
2021/12/07 23:38:20;;;;;;;;;;;15.70;37.80;;;;;;8366736;28;19916;-48
2021/12/07 23:42:20;;;;;;;;;;;15.70;37.80;;;;;;8366344;28;19972;-48
2021/12/07 23:46:21;;;;;;;;;;;15.70;37.80;;;;;;8366604;28;19940;-48
2021/12/07 23:50:21;;;;;;;;;;;15.80;37.80;;;;;;8365697;28;19925;-49
2021/12/07 23:54:22;;;;;;;;;;;15.70;37.70;;;;;;8365872;28;20354;-49
2021/12/07 23:58:22;;;;;;;;;;;15.70;37.70;;;;;;8366304;28;19971;-49
